sensor_id;sensor_type;location;lat;lon;timestamp;pressure;altitude;pressure_sealevel;temperature;humidity
35704;BME280;21820;51.112;13.762;2023-03-03T00:02:18;99903.59;;;21.97;57.59
35704;BME280;21820;51.112;13.762;2023-03-03T00:04:43;99901.38;;;21.92;57.58
35704;BME280;21820;51.112;13.762;2023-03-03T00:07:10;99906.47;;;21.94;57.60
35704;BME280;21820;51.112;13.762;2023-03-03T00:09:35;99900.25;;;21.95;58.79
35704;BME280;21820;51.112;13.762;2023-03-03T00:12:17;99898.06;;;21.90;59.18
35704;BME280;21820;51.112;13.762;2023-03-03T00:14:44;99905.78;;;21.92;59.07
35704;BME280;21820;51.112;13.762;2023-03-03T00:17:21;99907.84;;;21.88;59.65
35704;BME280;21820;51.112;13.762;2023-03-03T00:19:47;99918.31;;;21.88;58.36
35704;BME280;21820;51.112;13.762;2023-03-03T00:22:24;99907.16;;;21.86;58.81
35704;BME280;21820;51.112;13.762;2023-03-03T00:24:51;99914.31;;;21.84;57.86
35704;BME280;21820;51.112;13.762;2023-03-03T00:27:32;99919.69;;;21.83;59.76
35704;BME280;21820;51.112;13.762;2023-03-03T00:29:59;99924.78;;;21.84;59.15
35704;BME280;21820;51.112;13.762;2023-03-03T00:32:45;99928.88;;;21.77;59.15
35704;BME280;21820;51.112;13.762;2023-03-03T00:35:32;99935.75;;;21.78;60.30
35704;BME280;21820;51.112;13.762;2023-03-03T00:38:09;99936.00;;;21.75;59.35
35704;BME280;21820;51.112;13.762;2023-03-03T00:40:37;99905.69;;;21.63;59.19
35704;BME280;21820;51.112;13.762;2023-03-03T00:43:17;99919.50;;;21.75;59.88
35704;BME280;21820;51.112;13.762;2023-03-03T00:48:39;99926.78;;;21.71;60.54
35704;BME280;21820;51.112;13.762;2023-03-03T00:53:43;99932.78;;;21.62;57.57
35704;BME280;21820;51.112;13.762;2023-03-03T00:56:08;99925.78;;;21.63;57.43
35704;BME280;21820;51.112;13.762;2023-03-03T00:58:34;99927.69;;;21.61;56.95
35704;BME280;21820;51.112;13.762;2023-03-03T01:00:59;99927.81;;;21.59;57.20
35704;BME280;21820;51.112;13.762;2023-03-03T01:03:25;99929.47;;;21.60;57.38
35704;BME280;21820;51.112;13.762;2023-03-03T01:05:51;99925.50;;;21.66;56.32
35704;BME280;21820;51.112;13.762;2023-03-03T01:08:17;99922.91;;;21.75;56.70
35704;BME280;21820;51.112;13.762;2023-03-03T01:11:08;99927.00;;;21.89;55.66
35704;BME280;21820;51.112;13.762;2023-03-03T01:13:39;99937.50;;;22.08;54.83
35704;BME280;21820;51.112;13.762;2023-03-03T01:16:05;99928.72;;;22.19;54.95
35704;BME280;21820;51.112;13.762;2023-03-03T01:18:31;99915.34;;;22.22;54.93
35704;BME280;21820;51.112;13.762;2023-03-03T01:20:57;99930.53;;;22.47;54.36
35704;BME280;21820;51.112;13.762;2023-03-03T01:23:22;99924.78;;;22.53;54.01
35704;BME280;21820;51.112;13.762;2023-03-03T01:25:47;99928.22;;;22.53;53.60
35704;BME280;21820;51.112;13.762;2023-03-03T01:28:13;99927.38;;;22.53;54.08
35704;BME280;21820;51.112;13.762;2023-03-03T01:30:38;99925.44;;;22.45;54.47
35704;BME280;21820;51.112;13.762;2023-03-03T01:33:04;99924.03;;;22.41;54.37
35704;BME280;21820;51.112;13.762;2023-03-03T01:35:29;99929.84;;;22.35;53.95
35704;BME280;21820;51.112;13.762;2023-03-03T01:37:55;99928.84;;;22.27;54.88
35704;BME280;21820;51.112;13.762;2023-03-03T01:40:25;99911.22;;;22.10;54.79
35704;BME280;21820;51.112;13.762;2023-03-03T01:42:51;99929.41;;;22.11;54.87
35704;BME280;21820;51.112;13.762;2023-03-03T01:45:44;99921.25;;;22.05;55.40
35704;BME280;21820;51.112;13.762;2023-03-03T01:48:17;99919.84;;;22.01;55.27
35704;BME280;21820;51.112;13.762;2023-03-03T01:55:58;99906.88;;;21.89;56.23
35704;BME280;21820;51.112;13.762;2023-03-03T01:58:29;99907.16;;;21.86;56.19
35704;BME280;21820;51.112;13.762;2023-03-03T02:01:04;99903.00;;;21.84;56.99
35704;BME280;21820;51.112;13.762;2023-03-03T02:03:30;99893.00;;;21.68;56.81
35704;BME280;21820;51.112;13.762;2023-03-03T02:05:59;99919.13;;;21.79;57.45
35704;BME280;21820;51.112;13.762;2023-03-03T02:11:30;99909.03;;;21.75;57.10
35704;BME280;21820;51.112;13.762;2023-03-03T02:13:56;99909.25;;;21.72;57.88
35704;BME280;21820;51.112;13.762;2023-03-03T02:16:22;99902.34;;;21.61;57.51
35704;BME280;21820;51.112;13.762;2023-03-03T02:18:47;99918.94;;;21.71;57.79
35704;BME280;21820;51.112;13.762;2023-03-03T02:21:15;99922.75;;;21.67;58.41
35704;BME280;21820;51.112;13.762;2023-03-03T02:24:02;99919.44;;;21.65;59.66
35704;BME280;21820;51.112;13.762;2023-03-03T02:26:33;99907.88;;;21.68;58.71
35704;BME280;21820;51.112;13.762;2023-03-03T02:29:00;99906.22;;;21.67;58.17
35704;BME280;21820;51.112;13.762;2023-03-03T02:31:28;99903.72;;;21.65;58.94
35704;BME280;21820;51.112;13.762;2023-03-03T02:33:54;99904.84;;;21.63;58.71
35704;BME280;21820;51.112;13.762;2023-03-03T02:36:26;99912.81;;;21.61;58.77
35704;BME280;21820;51.112;13.762;2023-03-03T02:44:15;99916.91;;;21.54;57.67
35704;BME280;21820;51.112;13.762;2023-03-03T02:46:44;99901.69;;;21.39;57.31
35704;BME280;21820;51.112;13.762;2023-03-03T02:49:12;99906.47;;;21.54;57.18
35704;BME280;21820;51.112;13.762;2023-03-03T02:51:38;99910.34;;;21.60;57.05
35704;BME280;21820;51.112;13.762;2023-03-03T02:54:05;99905.44;;;21.76;55.97
35704;BME280;21820;51.112;13.762;2023-03-03T02:56:30;99906.88;;;21.89;56.08
35704;BME280;21820;51.112;13.762;2023-03-03T02:58:56;99913.53;;;22.03;55.12
35704;BME280;21820;51.112;13.762;2023-03-03T03:01:21;99914.66;;;22.20;54.97
35704;BME280;21820;51.112;13.762;2023-03-03T03:03:47;99912.88;;;22.30;54.35
35704;BME280;21820;51.112;13.762;2023-03-03T03:06:12;99916.59;;;22.46;54.52
35704;BME280;21820;51.112;13.762;2023-03-03T03:08:38;99915.38;;;22.50;53.93
35704;BME280;21820;51.112;13.762;2023-03-03T03:11:03;99918.56;;;22.44;53.72
35704;BME280;21820;51.112;13.762;2023-03-03T03:13:30;99916.31;;;22.40;54.34
35704;BME280;21820;51.112;13.762;2023-03-03T03:15:56;99924.31;;;22.38;54.20
35704;BME280;21820;51.112;13.762;2023-03-03T03:18:21;99932.88;;;22.31;54.70
35704;BME280;21820;51.112;13.762;2023-03-03T03:20:47;99931.06;;;22.22;54.90
35704;BME280;21820;51.112;13.762;2023-03-03T03:23:12;99916.88;;;22.15;54.61
35704;BME280;21820;51.112;13.762;2023-03-03T03:25:37;99929.78;;;22.07;54.71
35704;BME280;21820;51.112;13.762;2023-03-03T03:28:12;99920.97;;;21.98;55.32
35704;BME280;21820;51.112;13.762;2023-03-03T03:30:38;99927.28;;;21.95;55.91
35704;BME280;21820;51.112;13.762;2023-03-03T03:33:03;99929.75;;;21.87;55.65
35704;BME280;21820;51.112;13.762;2023-03-03T03:35:29;99924.66;;;21.86;55.67
35704;BME280;21820;51.112;13.762;2023-03-03T03:37:54;99917.19;;;21.81;56.19
35704;BME280;21820;51.112;13.762;2023-03-03T03:40:20;99919.50;;;21.75;56.77
35704;BME280;21820;51.112;13.762;2023-03-03T03:42:45;99905.00;;;21.71;56.48
35704;BME280;21820;51.112;13.762;2023-03-03T03:45:11;99909.25;;;21.72;56.42
35704;BME280;21820;51.112;13.762;2023-03-03T03:47:40;99928.97;;;21.66;56.56
35704;BME280;21820;51.112;13.762;2023-03-03T03:50:06;99921.38;;;21.63;58.26
35704;BME280;21820;51.112;13.762;2023-03-03T03:52:31;99933.50;;;21.64;57.60
35704;BME280;21820;51.112;13.762;2023-03-03T03:54:57;99942.41;;;21.62;57.55
35704;BME280;21820;51.112;13.762;2023-03-03T03:57:22;99906.84;;;21.50;57.31
35704;BME280;21820;51.112;13.762;2023-03-03T03:59:49;99929.59;;;21.59;57.64
35704;BME280;21820;51.112;13.762;2023-03-03T04:02:14;99940.19;;;21.57;58.25
35704;BME280;21820;51.112;13.762;2023-03-03T04:04:39;99939.00;;;21.61;58.63
35704;BME280;21820;51.112;13.762;2023-03-03T04:07:05;99938.81;;;21.53;58.39
35704;BME280;21820;51.112;13.762;2023-03-03T04:09:30;99936.97;;;21.44;58.00
35704;BME280;21820;51.112;13.762;2023-03-03T04:11:55;99962.38;;;21.53;59.14
35704;BME280;21820;51.112;13.762;2023-03-03T04:14:21;99943.31;;;21.42;57.87
35704;BME280;21820;51.112;13.762;2023-03-03T04:16:46;99953.81;;;21.51;58.02
35704;BME280;21820;51.112;13.762;2023-03-03T04:19:11;99943.63;;;21.48;57.88
35704;BME280;21820;51.112;13.762;2023-03-03T04:21:37;99952.94;;;21.41;57.22
35704;BME280;21820;51.112;13.762;2023-03-03T04:24:02;99946.59;;;21.44;57.37
35704;BME280;21820;51.112;13.762;2023-03-03T04:26:28;99954.63;;;21.52;56.69
35704;BME280;21820;51.112;13.762;2023-03-03T04:28:53;99941.31;;;21.55;56.31
35704;BME280;21820;51.112;13.762;2023-03-03T04:31:18;99949.56;;;21.80;56.25
35704;BME280;21820;51.112;13.762;2023-03-03T04:33:44;99952.38;;;21.98;55.67
35704;BME280;21820;51.112;13.762;2023-03-03T04:36:10;99959.44;;;22.17;55.30
35704;BME280;21820;51.112;13.762;2023-03-03T04:38:36;99947.50;;;22.43;54.32
35704;BME280;21820;51.112;13.762;2023-03-03T04:41:01;99956.66;;;22.86;52.95
35704;BME280;21820;51.112;13.762;2023-03-03T04:43:26;99949.00;;;23.21;51.42
35704;BME280;21820;51.112;13.762;2023-03-03T04:45:52;99959.84;;;23.55;50.75
35704;BME280;21820;51.112;13.762;2023-03-03T04:48:17;99954.38;;;23.76;50.64
35704;BME280;21820;51.112;13.762;2023-03-03T04:50:42;99955.53;;;24.00;50.01
35704;BME280;21820;51.112;13.762;2023-03-03T04:53:08;99957.97;;;24.11;49.39
35704;BME280;21820;51.112;13.762;2023-03-03T04:55:35;99958.47;;;24.24;49.23
35704;BME280;21820;51.112;13.762;2023-03-03T04:58:02;99959.25;;;24.25;49.36
35704;BME280;21820;51.112;13.762;2023-03-03T05:00:27;99960.19;;;24.33;48.53
35704;BME280;21820;51.112;13.762;2023-03-03T05:02:52;99953.38;;;24.40;48.51
35704;BME280;21820;51.112;13.762;2023-03-03T05:05:18;99962.97;;;24.49;48.50
35704;BME280;21820;51.112;13.762;2023-03-03T05:07:43;99962.38;;;24.56;48.63
35704;BME280;21820;51.112;13.762;2023-03-03T05:10:09;99955.06;;;24.49;48.82
35704;BME280;21820;51.112;13.762;2023-03-03T05:12:35;99963.50;;;24.53;48.63
35704;BME280;21820;51.112;13.762;2023-03-03T05:15:00;99956.53;;;24.62;48.63
35704;BME280;21820;51.112;13.762;2023-03-03T05:17:25;99943.06;;;24.65;48.24
35704;BME280;21820;51.112;13.762;2023-03-03T05:19:51;99937.09;;;24.72;47.79
35704;BME280;21820;51.112;13.762;2023-03-03T05:22:16;99936.28;;;24.72;47.70
35704;BME280;21820;51.112;13.762;2023-03-03T05:24:42;99948.16;;;24.76;48.14
35704;BME280;21820;51.112;13.762;2023-03-03T05:27:08;99959.94;;;24.72;48.15
35704;BME280;21820;51.112;13.762;2023-03-03T05:29:34;99940.53;;;24.73;47.82
35704;BME280;21820;51.112;13.762;2023-03-03T05:31:59;99947.16;;;24.77;47.92
35704;BME280;21820;51.112;13.762;2023-03-03T05:34:25;99939.28;;;24.77;47.88
35704;BME280;21820;51.112;13.762;2023-03-03T05:36:50;99952.47;;;24.85;47.49
35704;BME280;21820;51.112;13.762;2023-03-03T05:39:16;99964.38;;;24.89;48.01
35704;BME280;21820;51.112;13.762;2023-03-03T05:41:41;99964.94;;;24.83;48.09
35704;BME280;21820;51.112;13.762;2023-03-03T05:44:07;99954.44;;;24.83;47.14
35704;BME280;21820;51.112;13.762;2023-03-03T05:46:33;99971.25;;;24.90;47.93
35704;BME280;21820;51.112;13.762;2023-03-03T05:48:58;99954.81;;;24.88;47.52
35704;BME280;21820;51.112;13.762;2023-03-03T05:51:23;99957.13;;;24.91;47.93
35704;BME280;21820;51.112;13.762;2023-03-03T05:53:48;99963.06;;;24.93;47.29
35704;BME280;21820;51.112;13.762;2023-03-03T05:56:14;99962.31;;;24.83;47.71
35704;BME280;21820;51.112;13.762;2023-03-03T05:58:39;99969.78;;;24.70;47.97
35704;BME280;21820;51.112;13.762;2023-03-03T06:01:04;99962.00;;;24.51;48.16
35704;BME280;21820;51.112;13.762;2023-03-03T06:03:30;99956.50;;;24.26;48.83
35704;BME280;21820;51.112;13.762;2023-03-03T06:05:56;99962.94;;;24.14;49.36
35704;BME280;21820;51.112;13.762;2023-03-03T06:08:21;99955.53;;;24.00;50.13
35704;BME280;21820;51.112;13.762;2023-03-03T06:10:46;99960.88;;;23.81;50.18
35704;BME280;21820;51.112;13.762;2023-03-03T06:13:12;99960.78;;;23.73;50.47
35704;BME280;21820;51.112;13.762;2023-03-03T06:15:37;99966.13;;;23.72;50.86
35704;BME280;21820;51.112;13.762;2023-03-03T06:18:03;99945.47;;;23.59;50.69
35704;BME280;21820;51.112;13.762;2023-03-03T06:20:28;99958.69;;;23.67;51.02
35704;BME280;21820;51.112;13.762;2023-03-03T06:22:54;99958.16;;;23.73;50.31
35704;BME280;21820;51.112;13.762;2023-03-03T06:25:19;99969.44;;;23.74;50.41
35704;BME280;21820;51.112;13.762;2023-03-03T06:27:44;99968.06;;;23.79;51.12
35704;BME280;21820;51.112;13.762;2023-03-03T06:30:10;99974.00;;;23.81;50.38
35704;BME280;21820;51.112;13.762;2023-03-03T06:32:37;99985.56;;;23.88;50.54
35704;BME280;21820;51.112;13.762;2023-03-03T06:35:02;99994.50;;;23.95;49.84
35704;BME280;21820;51.112;13.762;2023-03-03T06:37:28;99996.72;;;24.00;49.88
35704;BME280;21820;51.112;13.762;2023-03-03T06:39:53;100003.81;;;23.99;49.73
35704;BME280;21820;51.112;13.762;2023-03-03T06:42:19;100001.72;;;24.03;50.10
35704;BME280;21820;51.112;13.762;2023-03-03T06:44:45;99997.25;;;24.03;49.72
35704;BME280;21820;51.112;13.762;2023-03-03T06:47:10;99975.44;;;24.03;49.18
35704;BME280;21820;51.112;13.762;2023-03-03T06:49:36;99997.91;;;24.15;49.63
35704;BME280;21820;51.112;13.762;2023-03-03T06:52:10;99999.97;;;24.21;49.34
35704;BME280;21820;51.112;13.762;2023-03-03T06:54:36;99991.69;;;24.16;49.56
35704;BME280;21820;51.112;13.762;2023-03-03T06:57:16;99992.69;;;24.05;49.78
35704;BME280;21820;51.112;13.762;2023-03-03T06:59:46;100001.03;;;23.91;49.92
35704;BME280;21820;51.112;13.762;2023-03-03T07:02:16;99994.66;;;23.67;50.39
35704;BME280;21820;51.112;13.762;2023-03-03T07:04:41;100011.19;;;23.67;50.75
35704;BME280;21820;51.112;13.762;2023-03-03T07:07:20;100004.59;;;23.63;50.67
35704;BME280;21820;51.112;13.762;2023-03-03T07:09:48;100009.84;;;23.63;50.99
35704;BME280;21820;51.112;13.762;2023-03-03T07:12:29;100009.44;;;23.58;51.42
35704;BME280;21820;51.112;13.762;2023-03-03T07:17:44;100008.97;;;23.72;50.72
35704;BME280;21820;51.112;13.762;2023-03-03T07:20:20;100014.47;;;23.79;50.79
35704;BME280;21820;51.112;13.762;2023-03-03T07:22:46;100019.69;;;23.88;50.01
35704;BME280;21820;51.112;13.762;2023-03-03T07:25:29;100020.91;;;23.94;49.87
35704;BME280;21820;51.112;13.762;2023-03-03T07:28:24;100028.53;;;24.06;49.85
35704;BME280;21820;51.112;13.762;2023-03-03T07:30:52;100015.13;;;24.00;49.35
35704;BME280;21820;51.112;13.762;2023-03-03T07:35:47;100040.56;;;24.26;49.03
35704;BME280;21820;51.112;13.762;2023-03-03T07:38:56;100044.88;;;24.27;49.25
35704;BME280;21820;51.112;13.762;2023-03-03T07:41:11;100048.03;;;24.31;49.18
35704;BME280;21820;51.112;13.762;2023-03-03T07:43:49;100047.50;;;24.27;49.34
35704;BME280;21820;51.112;13.762;2023-03-03T07:46:41;100015.09;;;24.09;49.90
35704;BME280;21820;51.112;13.762;2023-03-03T07:49:21;100047.88;;;24.05;49.55
35704;BME280;21820;51.112;13.762;2023-03-03T07:51:47;100038.63;;;23.92;49.74
35704;BME280;21820;51.112;13.762;2023-03-03T07:56:54;100025.59;;;23.63;50.86
35704;BME280;21820;51.112;13.762;2023-03-03T07:59:22;100048.50;;;23.71;50.75
35704;BME280;21820;51.112;13.762;2023-03-03T08:01:54;100046.03;;;23.69;51.17
35704;BME280;21820;51.112;13.762;2023-03-03T08:04:41;100044.78;;;23.73;50.55
35704;BME280;21820;51.112;13.762;2023-03-03T08:07:15;100041.88;;;23.76;50.64
35704;BME280;21820;51.112;13.762;2023-03-03T08:09:42;100042.66;;;23.86;50.79
35704;BME280;21820;51.112;13.762;2023-03-03T08:13:01;100040.84;;;23.87;50.15
35704;BME280;21820;51.112;13.762;2023-03-03T08:14:54;100041.25;;;23.92;50.15
35704;BME280;21820;51.112;13.762;2023-03-03T08:17:25;100034.72;;;24.05;49.67
35704;BME280;21820;51.112;13.762;2023-03-03T08:19:58;100032.19;;;24.13;49.59
35704;BME280;21820;51.112;13.762;2023-03-03T08:22:30;100035.91;;;24.20;49.31
35704;BME280;21820;51.112;13.762;2023-03-03T08:24:57;100037.56;;;24.21;49.57
35704;BME280;21820;51.112;13.762;2023-03-03T08:27:22;100043.34;;;24.25;49.58
35704;BME280;21820;51.112;13.762;2023-03-03T08:29:48;100045.56;;;24.29;49.40
35704;BME280;21820;51.112;13.762;2023-03-03T08:32:14;100048.84;;;24.31;49.07
35704;BME280;21820;51.112;13.762;2023-03-03T08:34:39;100045.56;;;24.29;49.69
35704;BME280;21820;51.112;13.762;2023-03-03T08:37:05;100045.28;;;24.23;49.49
35704;BME280;21820;51.112;13.762;2023-03-03T08:39:30;100032.69;;;23.99;50.15
35704;BME280;21820;51.112;13.762;2023-03-03T08:41:56;100052.97;;;23.97;50.16
35704;BME280;21820;51.112;13.762;2023-03-03T08:44:21;100062.97;;;23.84;50.46
35704;BME280;21820;51.112;13.762;2023-03-03T08:46:47;100061.19;;;23.75;50.80
35704;BME280;21820;51.112;13.762;2023-03-03T08:49:12;100059.59;;;23.65;50.80
35704;BME280;21820;51.112;13.762;2023-03-03T08:51:37;100065.91;;;23.72;51.21
35704;BME280;21820;51.112;13.762;2023-03-03T08:54:03;100050.56;;;23.67;51.23
35704;BME280;21820;51.112;13.762;2023-03-03T08:56:28;100068.38;;;23.83;51.07
35704;BME280;21820;51.112;13.762;2023-03-03T08:58:54;100064.78;;;23.84;50.20
35704;BME280;21820;51.112;13.762;2023-03-03T09:01:19;100064.72;;;23.93;50.42
35704;BME280;21820;51.112;13.762;2023-03-03T09:03:44;100065.16;;;23.98;50.63
35704;BME280;21820;51.112;13.762;2023-03-03T09:06:10;100062.28;;;24.01;50.03
35704;BME280;21820;51.112;13.762;2023-03-03T09:08:36;100068.03;;;24.14;49.65
35704;BME280;21820;51.112;13.762;2023-03-03T09:11:02;100069.78;;;24.23;49.61
35704;BME280;21820;51.112;13.762;2023-03-03T09:13:29;100063.81;;;24.31;49.40
35704;BME280;21820;51.112;13.762;2023-03-03T09:15:57;100040.88;;;24.23;49.74
35704;BME280;21820;51.112;13.762;2023-03-03T09:18:35;100060.13;;;24.41;49.65
35704;BME280;21820;51.112;13.762;2023-03-03T09:21:01;100066.53;;;24.39;48.93
35704;BME280;21820;51.112;13.762;2023-03-03T09:23:53;100077.59;;;24.33;49.42
35704;BME280;21820;51.112;13.762;2023-03-03T09:31:48;100074.56;;;24.01;49.63
35704;BME280;21820;51.112;13.762;2023-03-03T09:36:52;100069.66;;;23.69;50.56
35704;BME280;21820;51.112;13.762;2023-03-03T09:39:20;100088.84;;;23.79;50.49
35704;BME280;21820;51.112;13.762;2023-03-03T09:58:13;100101.19;;;24.15;49.68
35704;BME280;21820;51.112;13.762;2023-03-03T10:08:46;100100.53;;;24.40;49.14
35704;BME280;21820;51.112;13.762;2023-03-03T10:11:49;100111.59;;;24.44;49.16
35704;BME280;21820;51.112;13.762;2023-03-03T10:14:29;100109.69;;;24.36;49.05
35704;BME280;21820;51.112;13.762;2023-03-03T10:22:32;100112.44;;;23.98;50.62
35704;BME280;21820;51.112;13.762;2023-03-03T10:30:38;100097.69;;;23.78;50.66
35704;BME280;21820;51.112;13.762;2023-03-03T10:33:31;100117.03;;;23.77;51.19
35704;BME280;21820;51.112;13.762;2023-03-03T10:41:58;100111.75;;;23.96;50.24
35704;BME280;21820;51.112;13.762;2023-03-03T10:50:11;100112.78;;;24.22;49.43
35704;BME280;21820;51.112;13.762;2023-03-03T11:01:24;100106.09;;;24.37;49.44
35704;BME280;21820;51.112;13.762;2023-03-03T11:04:04;100112.47;;;24.35;49.37
35704;BME280;21820;51.112;13.762;2023-03-03T11:12:19;100108.44;;;23.94;50.44
35704;BME280;21820;51.112;13.762;2023-03-03T11:31:59;100100.56;;;23.94;50.50
35704;BME280;21820;51.112;13.762;2023-03-03T11:37:07;100098.03;;;24.12;50.51
35704;BME280;21820;51.112;13.762;2023-03-03T11:39:34;100088.66;;;24.09;49.63
35704;BME280;21820;51.112;13.762;2023-03-03T11:42:20;100102.59;;;24.19;49.86
35704;BME280;21820;51.112;13.762;2023-03-03T11:44:54;100098.13;;;24.29;49.81
35704;BME280;21820;51.112;13.762;2023-03-03T11:47:33;100098.38;;;24.26;49.71
35704;BME280;21820;51.112;13.762;2023-03-03T11:58:13;100090.47;;;23.99;50.38
35704;BME280;21820;51.112;13.762;2023-03-03T12:06:02;100080.56;;;23.74;51.00
35704;BME280;21820;51.112;13.762;2023-03-03T12:16:58;100074.44;;;23.83;51.04
35704;BME280;21820;51.112;13.762;2023-03-03T12:22:15;100074.72;;;23.99;50.81
35704;BME280;21820;51.112;13.762;2023-03-03T12:24:55;100080.38;;;24.04;50.37
35704;BME280;21820;51.112;13.762;2023-03-03T12:30:15;100068.56;;;24.18;49.61
35704;BME280;21820;51.112;13.762;2023-03-03T12:35:41;100064.91;;;24.28;49.44
35704;BME280;21820;51.112;13.762;2023-03-03T12:38:10;100065.22;;;24.25;49.98
35704;BME280;21820;51.112;13.762;2023-03-03T12:41:15;100063.81;;;24.21;50.07
35704;BME280;21820;51.112;13.762;2023-03-03T12:43:47;100061.41;;;24.10;50.28
35704;BME280;21820;51.112;13.762;2023-03-03T12:48:53;100044.31;;;23.87;50.39
35704;BME280;21820;51.112;13.762;2023-03-03T12:54:20;100045.03;;;23.70;51.21
35704;BME280;21820;51.112;13.762;2023-03-03T12:56:55;100042.41;;;23.70;51.44
35704;BME280;21820;51.112;13.762;2023-03-03T13:05:51;100041.81;;;23.86;50.53
35704;BME280;21820;51.112;13.762;2023-03-03T13:08:25;100043.06;;;23.91;50.29
35704;BME280;21820;51.112;13.762;2023-03-03T13:14:48;100036.25;;;24.08;50.19
35704;BME280;21820;51.112;13.762;2023-03-03T13:17:01;100040.38;;;24.10;50.49
35704;BME280;21820;51.112;13.762;2023-03-03T13:19:45;100037.03;;;24.18;50.18
35704;BME280;21820;51.112;13.762;2023-03-03T13:22:17;100028.19;;;24.19;50.11
35704;BME280;21820;51.112;13.762;2023-03-03T13:27:53;100029.25;;;24.26;50.05
35704;BME280;21820;51.112;13.762;2023-03-03T13:30:22;100030.13;;;24.17;49.71
35704;BME280;21820;51.112;13.762;2023-03-03T13:35:40;100033.50;;;23.90;50.54
35704;BME280;21820;51.112;13.762;2023-03-03T13:38:13;100031.06;;;23.79;50.85
35704;BME280;21820;51.112;13.762;2023-03-03T13:40:45;100028.19;;;23.73;50.77
35704;BME280;21820;51.112;13.762;2023-03-03T13:43:29;100024.88;;;23.71;51.16
35704;BME280;21820;51.112;13.762;2023-03-03T13:49:06;100021.81;;;23.75;50.74
35704;BME280;21820;51.112;13.762;2023-03-03T13:57:17;100020.22;;;23.92;50.28
35704;BME280;21820;51.112;13.762;2023-03-03T14:00:19;100017.88;;;24.08;50.13
35704;BME280;21820;51.112;13.762;2023-03-03T14:03:06;100016.06;;;24.08;50.86
35704;BME280;21820;51.112;13.762;2023-03-03T14:05:44;99996.56;;;24.11;50.21
35704;BME280;21820;51.112;13.762;2023-03-03T14:08:44;99986.06;;;24.11;49.99
35704;BME280;21820;51.112;13.762;2023-03-03T14:19:02;99994.88;;;24.10;49.78
35704;BME280;21820;51.112;13.762;2023-03-03T14:21:44;99996.19;;;23.96;50.76
35704;BME280;21820;51.112;13.762;2023-03-03T14:24:20;99995.00;;;23.81;51.18
35704;BME280;21820;51.112;13.762;2023-03-03T14:26:51;100000.41;;;23.70;51.25
35704;BME280;21820;51.112;13.762;2023-03-03T14:31:52;100000.00;;;23.65;51.38
35704;BME280;21820;51.112;13.762;2023-03-03T14:40:19;99994.03;;;23.82;50.70
35704;BME280;21820;51.112;13.762;2023-03-03T14:42:48;99983.22;;;23.85;50.69
35704;BME280;21820;51.112;13.762;2023-03-03T14:45:22;99984.31;;;23.92;50.77
35704;BME280;21820;51.112;13.762;2023-03-03T14:47:53;99993.69;;;24.04;50.13
35704;BME280;21820;51.112;13.762;2023-03-03T14:50:34;99968.25;;;23.95;50.51
35704;BME280;21820;51.112;13.762;2023-03-03T14:53:10;99983.97;;;24.14;49.88
35704;BME280;21820;51.112;13.762;2023-03-03T14:55:39;99980.03;;;24.18;50.00
35704;BME280;21820;51.112;13.762;2023-03-03T15:00:49;99959.31;;;24.15;49.87
35704;BME280;21820;51.112;13.762;2023-03-03T15:03:21;99974.78;;;24.18;50.07
35704;BME280;21820;51.112;13.762;2023-03-03T15:05:51;99978.97;;;24.11;50.11
35704;BME280;21820;51.112;13.762;2023-03-03T15:08:33;99977.81;;;23.96;50.15
35704;BME280;21820;51.112;13.762;2023-03-03T15:11:31;99988.06;;;23.80;50.91
35704;BME280;21820;51.112;13.762;2023-03-03T15:14:03;99979.69;;;23.67;50.95
35704;BME280;21820;51.112;13.762;2023-03-03T15:16:34;99987.03;;;23.64;51.38
35704;BME280;21820;51.112;13.762;2023-03-03T15:24:25;99970.34;;;23.55;51.10
35704;BME280;21820;51.112;13.762;2023-03-03T15:27:00;99984.66;;;23.70;50.97
35704;BME280;21820;51.112;13.762;2023-03-03T15:35:36;99976.72;;;23.89;50.40
35704;BME280;21820;51.112;13.762;2023-03-03T15:37:57;99973.66;;;23.94;50.60
35704;BME280;21820;51.112;13.762;2023-03-03T15:45:52;99973.44;;;24.14;50.00
35704;BME280;21820;51.112;13.762;2023-03-03T15:48:54;99960.59;;;24.11;50.36
35704;BME280;21820;51.112;13.762;2023-03-03T15:54:24;99963.50;;;24.08;50.08
35704;BME280;21820;51.112;13.762;2023-03-03T15:56:55;99977.94;;;24.04;50.73
35704;BME280;21820;51.112;13.762;2023-03-03T16:02:20;99984.78;;;23.78;51.10
35704;BME280;21820;51.112;13.762;2023-03-03T16:04:56;99975.97;;;23.70;50.55
35704;BME280;21820;51.112;13.762;2023-03-03T16:12:51;99967.81;;;23.73;51.52
35704;BME280;21820;51.112;13.762;2023-03-03T16:21:02;99968.25;;;23.95;51.20
35704;BME280;21820;51.112;13.762;2023-03-03T16:23:48;99964.41;;;23.99;50.95
35704;BME280;21820;51.112;13.762;2023-03-03T16:26:42;99974.84;;;24.09;49.96
35704;BME280;21820;51.112;13.762;2023-03-03T16:38:01;99966.72;;;24.29;49.84
35704;BME280;21820;51.112;13.762;2023-03-03T16:45:44;99956.66;;;23.88;50.81
35704;BME280;21820;51.112;13.762;2023-03-03T16:53:49;99967.97;;;23.71;51.01
35704;BME280;21820;51.112;13.762;2023-03-03T16:56:27;99976.13;;;23.59;51.62
35704;BME280;21820;51.112;13.762;2023-03-03T17:02:06;99974.00;;;23.35;52.55
35704;BME280;21820;51.112;13.762;2023-03-03T17:04:42;99954.94;;;23.14;52.29
35704;BME280;21820;51.112;13.762;2023-03-03T17:18:34;99972.78;;;23.01;52.80
35704;BME280;21820;51.112;13.762;2023-03-03T17:21:00;99971.81;;;23.11;52.80
35704;BME280;21820;51.112;13.762;2023-03-03T17:31:15;99979.53;;;23.42;52.42
35704;BME280;21820;51.112;13.762;2023-03-03T17:37:42;99984.84;;;23.59;51.95